sensor_id;sensor_type;location;lat;lon;timestamp;P1;durP1;ratioP1;P2;durP2;ratioP2
14348;SDS011;7258;50.376;8.742;2023-04-07T00:00:23;72.60;;;38.00;;
14348;SDS011;7258;50.376;8.742;2023-04-07T00:02:29;72.73;;;38.03;;
14348;SDS011;7258;50.376;8.742;2023-04-07T00:04:32;69.70;;;37.27;;
14348;SDS011;7258;50.376;8.742;2023-04-07T00:06:36;77.00;;;38.40;;
14348;SDS011;7258;50.376;8.742;2023-04-07T00:08:41;73.30;;;38.87;;
14348;SDS011;7258;50.376;8.742;2023-04-07T00:10:44;72.93;;;37.90;;
14348;SDS011;7258;50.376;8.742;2023-04-07T00:12:47;72.70;;;38.13;;
14348;SDS011;7258;50.376;8.742;2023-04-07T00:14:50;75.63;;;37.83;;
14348;SDS011;7258;50.376;8.742;2023-04-07T00:16:56;77.67;;;38.70;;
14348;SDS011;7258;50.376;8.742;2023-04-07T00:19:05;84.07;;;39.70;;
14348;SDS011;7258;50.376;8.742;2023-04-07T00:21:10;88.50;;;41.87;;
14348;SDS011;7258;50.376;8.742;2023-04-07T00:23:14;97.03;;;41.10;;
14348;SDS011;7258;50.376;8.742;2023-04-07T00:25:17;92.93;;;41.00;;
14348;SDS011;7258;50.376;8.742;2023-04-07T00:27:22;88.57;;;41.90;;
14348;SDS011;7258;50.376;8.742;2023-04-07T00:29:26;92.53;;;41.43;;
14348;SDS011;7258;50.376;8.742;2023-04-07T00:31:29;88.57;;;41.00;;
14348;SDS011;7258;50.376;8.742;2023-04-07T00:33:34;92.27;;;42.07;;
14348;SDS011;7258;50.376;8.742;2023-04-07T00:35:39;94.77;;;42.67;;
14348;SDS011;7258;50.376;8.742;2023-04-07T00:37:42;91.37;;;41.37;;
14348;SDS011;7258;50.376;8.742;2023-04-07T00:39:46;92.20;;;40.90;;
14348;SDS011;7258;50.376;8.742;2023-04-07T00:41:49;87.03;;;40.27;;
14348;SDS011;7258;50.376;8.742;2023-04-07T00:43:52;90.13;;;40.60;;
14348;SDS011;7258;50.376;8.742;2023-04-07T00:45:55;82.87;;;39.77;;
14348;SDS011;7258;50.376;8.742;2023-04-07T00:48:04;82.07;;;39.57;;
14348;SDS011;7258;50.376;8.742;2023-04-07T00:50:09;82.23;;;40.90;;
14348;SDS011;7258;50.376;8.742;2023-04-07T00:52:13;81.97;;;40.10;;
14348;SDS011;7258;50.376;8.742;2023-04-07T00:54:17;90.30;;;40.67;;
14348;SDS011;7258;50.376;8.742;2023-04-07T00:56:20;96.97;;;41.60;;
14348;SDS011;7258;50.376;8.742;2023-04-07T00:58:23;92.83;;;41.27;;
14348;SDS011;7258;50.376;8.742;2023-04-07T01:00:26;96.10;;;41.40;;
14348;SDS011;7258;50.376;8.742;2023-04-07T01:02:31;95.80;;;43.00;;
14348;SDS011;7258;50.376;8.742;2023-04-07T01:04:41;100.53;;;42.33;;
14348;SDS011;7258;50.376;8.742;2023-04-07T01:06:50;96.43;;;43.27;;
14348;SDS011;7258;50.376;8.742;2023-04-07T01:09:00;85.07;;;41.40;;
14348;SDS011;7258;50.376;8.742;2023-04-07T01:11:07;96.77;;;42.53;;
14348;SDS011;7258;50.376;8.742;2023-04-07T01:13:20;95.10;;;42.43;;
14348;SDS011;7258;50.376;8.742;2023-04-07T01:15:28;104.23;;;42.80;;
14348;SDS011;7258;50.376;8.742;2023-04-07T01:17:32;91.80;;;40.03;;
14348;SDS011;7258;50.376;8.742;2023-04-07T01:19:38;84.20;;;41.37;;
14348;SDS011;7258;50.376;8.742;2023-04-07T01:21:44;107.47;;;43.50;;
14348;SDS011;7258;50.376;8.742;2023-04-07T01:23:57;97.30;;;42.83;;
14348;SDS011;7258;50.376;8.742;2023-04-07T01:26:22;99.83;;;40.60;;
14348;SDS011;7258;50.376;8.742;2023-04-07T01:31:11;98.37;;;40.83;;
14348;SDS011;7258;50.376;8.742;2023-04-07T01:33:15;78.80;;;38.03;;
14348;SDS011;7258;50.376;8.742;2023-04-07T01:35:20;86.27;;;38.83;;
14348;SDS011;7258;50.376;8.742;2023-04-07T01:37:28;69.50;;;36.27;;
14348;SDS011;7258;50.376;8.742;2023-04-07T01:39:32;79.07;;;36.73;;
14348;SDS011;7258;50.376;8.742;2023-04-07T01:41:36;87.97;;;38.53;;
14348;SDS011;7258;50.376;8.742;2023-04-07T01:43:40;85.57;;;39.20;;
14348;SDS011;7258;50.376;8.742;2023-04-07T01:45:45;75.03;;;37.90;;
14348;SDS011;7258;50.376;8.742;2023-04-07T01:47:50;91.07;;;38.87;;
14348;SDS011;7258;50.376;8.742;2023-04-07T01:49:54;80.07;;;38.57;;
14348;SDS011;7258;50.376;8.742;2023-04-07T01:51:59;76.97;;;36.13;;
14348;SDS011;7258;50.376;8.742;2023-04-07T01:54:03;79.40;;;37.40;;
14348;SDS011;7258;50.376;8.742;2023-04-07T01:56:06;83.53;;;37.87;;
14348;SDS011;7258;50.376;8.742;2023-04-07T01:58:10;84.93;;;38.70;;
14348;SDS011;7258;50.376;8.742;2023-04-07T02:00:13;87.87;;;39.13;;
14348;SDS011;7258;50.376;8.742;2023-04-07T02:02:16;93.23;;;38.70;;
14348;SDS011;7258;50.376;8.742;2023-04-07T02:04:22;90.80;;;38.80;;
14348;SDS011;7258;50.376;8.742;2023-04-07T02:06:32;82.30;;;38.90;;
14348;SDS011;7258;50.376;8.742;2023-04-07T02:08:41;92.37;;;38.80;;
14348;SDS011;7258;50.376;8.742;2023-04-07T02:10:49;80.03;;;38.07;;
14348;SDS011;7258;50.376;8.742;2023-04-07T02:12:54;92.37;;;40.40;;
14348;SDS011;7258;50.376;8.742;2023-04-07T02:14:59;88.67;;;39.27;;
14348;SDS011;7258;50.376;8.742;2023-04-07T02:17:05;80.83;;;38.20;;
14348;SDS011;7258;50.376;8.742;2023-04-07T02:19:08;92.00;;;39.03;;
14348;SDS011;7258;50.376;8.742;2023-04-07T02:21:13;80.53;;;37.40;;
14348;SDS011;7258;50.376;8.742;2023-04-07T02:23:17;84.03;;;38.67;;
14348;SDS011;7258;50.376;8.742;2023-04-07T02:25:20;89.00;;;38.37;;
14348;SDS011;7258;50.376;8.742;2023-04-07T02:27:25;81.90;;;38.33;;
14348;SDS011;7258;50.376;8.742;2023-04-07T02:29:28;86.40;;;38.23;;
14348;SDS011;7258;50.376;8.742;2023-04-07T02:31:31;80.27;;;36.80;;
14348;SDS011;7258;50.376;8.742;2023-04-07T02:33:34;79.17;;;37.97;;
14348;SDS011;7258;50.376;8.742;2023-04-07T02:35:39;87.40;;;37.97;;
14348;SDS011;7258;50.376;8.742;2023-04-07T02:37:43;78.53;;;35.20;;
14348;SDS011;7258;50.376;8.742;2023-04-07T02:39:47;81.80;;;35.73;;
14348;SDS011;7258;50.376;8.742;2023-04-07T02:41:50;81.00;;;36.00;;
14348;SDS011;7258;50.376;8.742;2023-04-07T02:43:53;77.47;;;34.63;;
14348;SDS011;7258;50.376;8.742;2023-04-07T02:45:57;84.50;;;37.13;;
14348;SDS011;7258;50.376;8.742;2023-04-07T02:48:00;77.53;;;35.73;;
14348;SDS011;7258;50.376;8.742;2023-04-07T02:50:04;70.93;;;34.47;;
14348;SDS011;7258;50.376;8.742;2023-04-07T02:52:08;89.83;;;36.00;;
14348;SDS011;7258;50.376;8.742;2023-04-07T02:54:14;73.43;;;34.63;;
14348;SDS011;7258;50.376;8.742;2023-04-07T02:56:17;68.03;;;34.17;;
14348;SDS011;7258;50.376;8.742;2023-04-07T02:58:20;82.50;;;34.87;;
14348;SDS011;7258;50.376;8.742;2023-04-07T03:00:24;74.53;;;35.63;;
14348;SDS011;7258;50.376;8.742;2023-04-07T03:02:27;75.13;;;33.77;;
14348;SDS011;7258;50.376;8.742;2023-04-07T03:04:31;73.33;;;33.63;;
14348;SDS011;7258;50.376;8.742;2023-04-07T03:06:34;79.03;;;33.67;;
14348;SDS011;7258;50.376;8.742;2023-04-07T03:08:37;77.03;;;33.73;;
14348;SDS011;7258;50.376;8.742;2023-04-07T03:10:42;78.33;;;33.77;;
14348;SDS011;7258;50.376;8.742;2023-04-07T03:12:45;81.30;;;34.47;;
14348;SDS011;7258;50.376;8.742;2023-04-07T03:14:48;83.80;;;34.80;;
14348;SDS011;7258;50.376;8.742;2023-04-07T03:16:51;83.57;;;33.67;;
14348;SDS011;7258;50.376;8.742;2023-04-07T03:18:54;74.40;;;33.47;;
14348;SDS011;7258;50.376;8.742;2023-04-07T03:20:57;75.13;;;33.33;;
14348;SDS011;7258;50.376;8.742;2023-04-07T03:23:00;80.93;;;33.47;;
14348;SDS011;7258;50.376;8.742;2023-04-07T03:25:04;74.03;;;32.87;;
14348;SDS011;7258;50.376;8.742;2023-04-07T03:27:08;71.73;;;32.97;;
14348;SDS011;7258;50.376;8.742;2023-04-07T03:29:11;79.87;;;33.27;;
14348;SDS011;7258;50.376;8.742;2023-04-07T03:31:15;88.20;;;34.70;;
14348;SDS011;7258;50.376;8.742;2023-04-07T03:33:18;78.57;;;32.57;;
14348;SDS011;7258;50.376;8.742;2023-04-07T03:35:21;77.77;;;32.93;;
14348;SDS011;7258;50.376;8.742;2023-04-07T03:37:24;74.80;;;33.03;;
14348;SDS011;7258;50.376;8.742;2023-04-07T03:39:28;74.50;;;33.40;;
14348;SDS011;7258;50.376;8.742;2023-04-07T03:41:31;71.50;;;32.33;;
14348;SDS011;7258;50.376;8.742;2023-04-07T03:43:35;75.53;;;32.63;;
14348;SDS011;7258;50.376;8.742;2023-04-07T03:45:38;66.97;;;32.67;;
14348;SDS011;7258;50.376;8.742;2023-04-07T03:47:41;76.53;;;33.13;;
14348;SDS011;7258;50.376;8.742;2023-04-07T03:49:45;70.37;;;31.80;;
14348;SDS011;7258;50.376;8.742;2023-04-07T03:51:47;74.27;;;31.57;;
14348;SDS011;7258;50.376;8.742;2023-04-07T03:53:50;73.50;;;31.90;;
14348;SDS011;7258;50.376;8.742;2023-04-07T03:55:54;71.53;;;32.07;;
14348;SDS011;7258;50.376;8.742;2023-04-07T03:57:57;70.80;;;31.13;;
14348;SDS011;7258;50.376;8.742;2023-04-07T04:00:02;62.43;;;29.90;;
14348;SDS011;7258;50.376;8.742;2023-04-07T04:02:06;65.40;;;30.07;;
14348;SDS011;7258;50.376;8.742;2023-04-07T04:04:09;64.97;;;30.20;;
14348;SDS011;7258;50.376;8.742;2023-04-07T04:06:13;63.83;;;29.13;;
14348;SDS011;7258;50.376;8.742;2023-04-07T04:08:16;66.20;;;29.73;;
14348;SDS011;7258;50.376;8.742;2023-04-07T04:10:19;61.97;;;29.63;;
14348;SDS011;7258;50.376;8.742;2023-04-07T04:12:22;65.30;;;28.80;;
14348;SDS011;7258;50.376;8.742;2023-04-07T04:14:25;64.33;;;28.70;;
14348;SDS011;7258;50.376;8.742;2023-04-07T04:16:30;62.83;;;28.83;;
14348;SDS011;7258;50.376;8.742;2023-04-07T04:18:33;66.47;;;29.83;;
14348;SDS011;7258;50.376;8.742;2023-04-07T04:20:36;63.20;;;29.83;;
14348;SDS011;7258;50.376;8.742;2023-04-07T04:22:39;52.70;;;27.77;;
14348;SDS011;7258;50.376;8.742;2023-04-07T04:24:42;63.07;;;29.23;;
14348;SDS011;7258;50.376;8.742;2023-04-07T04:26:45;67.43;;;30.63;;
14348;SDS011;7258;50.376;8.742;2023-04-07T04:28:49;52.57;;;27.67;;
14348;SDS011;7258;50.376;8.742;2023-04-07T04:30:52;67.40;;;29.77;;
14348;SDS011;7258;50.376;8.742;2023-04-07T04:32:56;72.37;;;30.00;;
14348;SDS011;7258;50.376;8.742;2023-04-07T04:34:59;67.07;;;30.00;;
14348;SDS011;7258;50.376;8.742;2023-04-07T04:37:02;63.90;;;30.00;;
14348;SDS011;7258;50.376;8.742;2023-04-07T04:39:05;67.67;;;31.00;;
14348;SDS011;7258;50.376;8.742;2023-04-07T04:41:08;71.33;;;30.00;;
14348;SDS011;7258;50.376;8.742;2023-04-07T04:43:11;67.00;;;30.43;;
14348;SDS011;7258;50.376;8.742;2023-04-07T04:45:15;69.73;;;31.47;;
14348;SDS011;7258;50.376;8.742;2023-04-07T04:47:18;70.83;;;31.27;;
14348;SDS011;7258;50.376;8.742;2023-04-07T04:49:23;64.67;;;29.73;;
14348;SDS011;7258;50.376;8.742;2023-04-07T04:51:26;68.40;;;30.20;;
14348;SDS011;7258;50.376;8.742;2023-04-07T04:53:29;73.73;;;30.43;;
14348;SDS011;7258;50.376;8.742;2023-04-07T04:55:32;72.63;;;30.00;;
14348;SDS011;7258;50.376;8.742;2023-04-07T04:57:35;65.10;;;28.60;;
14348;SDS011;7258;50.376;8.742;2023-04-07T04:59:39;65.37;;;29.97;;
14348;SDS011;7258;50.376;8.742;2023-04-07T05:01:42;64.80;;;28.33;;
14348;SDS011;7258;50.376;8.742;2023-04-07T05:03:46;67.87;;;29.17;;
14348;SDS011;7258;50.376;8.742;2023-04-07T05:05:50;58.47;;;28.40;;
14348;SDS011;7258;50.376;8.742;2023-04-07T05:07:53;64.57;;;28.50;;
14348;SDS011;7258;50.376;8.742;2023-04-07T05:09:56;67.10;;;30.20;;
14348;SDS011;7258;50.376;8.742;2023-04-07T05:11:59;68.30;;;29.47;;
14348;SDS011;7258;50.376;8.742;2023-04-07T05:14:03;69.37;;;29.63;;
14348;SDS011;7258;50.376;8.742;2023-04-07T05:16:06;65.30;;;29.67;;
14348;SDS011;7258;50.376;8.742;2023-04-07T05:18:09;64.80;;;28.47;;
14348;SDS011;7258;50.376;8.742;2023-04-07T05:20:12;61.07;;;29.03;;
14348;SDS011;7258;50.376;8.742;2023-04-07T05:22:17;51.67;;;26.00;;
14348;SDS011;7258;50.376;8.742;2023-04-07T05:24:20;66.33;;;29.03;;
14348;SDS011;7258;50.376;8.742;2023-04-07T05:26:23;68.83;;;28.73;;
14348;SDS011;7258;50.376;8.742;2023-04-07T05:28:26;64.30;;;27.00;;
14348;SDS011;7258;50.376;8.742;2023-04-07T05:30:29;69.80;;;28.23;;
14348;SDS011;7258;50.376;8.742;2023-04-07T05:32:35;62.03;;;26.73;;
14348;SDS011;7258;50.376;8.742;2023-04-07T05:34:40;58.33;;;27.20;;
14348;SDS011;7258;50.376;8.742;2023-04-07T05:36:43;65.07;;;28.90;;
14348;SDS011;7258;50.376;8.742;2023-04-07T05:38:47;60.10;;;27.20;;
14348;SDS011;7258;50.376;8.742;2023-04-07T05:40:50;57.60;;;27.00;;
14348;SDS011;7258;50.376;8.742;2023-04-07T05:42:54;61.83;;;28.13;;
14348;SDS011;7258;50.376;8.742;2023-04-07T05:44:57;63.67;;;27.30;;
14348;SDS011;7258;50.376;8.742;2023-04-07T05:47:00;67.07;;;29.20;;
14348;SDS011;7258;50.376;8.742;2023-04-07T05:49:06;63.27;;;27.03;;
14348;SDS011;7258;50.376;8.742;2023-04-07T05:51:20;60.07;;;27.23;;
14348;SDS011;7258;50.376;8.742;2023-04-07T05:53:24;57.53;;;28.30;;
14348;SDS011;7258;50.376;8.742;2023-04-07T05:55:28;59.00;;;26.70;;
14348;SDS011;7258;50.376;8.742;2023-04-07T05:57:36;55.63;;;26.63;;
14348;SDS011;7258;50.376;8.742;2023-04-07T05:59:42;62.50;;;27.73;;
14348;SDS011;7258;50.376;8.742;2023-04-07T06:01:46;60.50;;;27.40;;
14348;SDS011;7258;50.376;8.742;2023-04-07T06:03:49;57.93;;;27.63;;
14348;SDS011;7258;50.376;8.742;2023-04-07T06:05:58;61.23;;;27.77;;
14348;SDS011;7258;50.376;8.742;2023-04-07T06:08:03;56.47;;;26.10;;
14348;SDS011;7258;50.376;8.742;2023-04-07T06:10:09;58.37;;;26.27;;
14348;SDS011;7258;50.376;8.742;2023-04-07T06:12:14;49.03;;;25.07;;
14348;SDS011;7258;50.376;8.742;2023-04-07T06:14:18;66.07;;;27.83;;
14348;SDS011;7258;50.376;8.742;2023-04-07T06:16:21;53.23;;;24.93;;
14348;SDS011;7258;50.376;8.742;2023-04-07T06:18:25;55.10;;;25.53;;
14348;SDS011;7258;50.376;8.742;2023-04-07T06:20:39;52.67;;;24.97;;
14348;SDS011;7258;50.376;8.742;2023-04-07T06:22:45;52.90;;;25.83;;
14348;SDS011;7258;50.376;8.742;2023-04-07T06:24:51;58.27;;;25.73;;
14348;SDS011;7258;50.376;8.742;2023-04-07T06:26:55;55.97;;;25.77;;
14348;SDS011;7258;50.376;8.742;2023-04-07T06:29:00;59.63;;;25.73;;
14348;SDS011;7258;50.376;8.742;2023-04-07T06:31:03;58.40;;;26.00;;
14348;SDS011;7258;50.376;8.742;2023-04-07T06:33:11;53.23;;;26.20;;
14348;SDS011;7258;50.376;8.742;2023-04-07T06:35:14;45.93;;;23.67;;
14348;SDS011;7258;50.376;8.742;2023-04-07T06:37:17;52.20;;;25.23;;
14348;SDS011;7258;50.376;8.742;2023-04-07T06:39:21;52.17;;;24.63;;
14348;SDS011;7258;50.376;8.742;2023-04-07T06:41:24;46.47;;;23.70;;
14348;SDS011;7258;50.376;8.742;2023-04-07T06:43:27;49.73;;;25.13;;
14348;SDS011;7258;50.376;8.742;2023-04-07T06:45:32;48.07;;;24.03;;
14348;SDS011;7258;50.376;8.742;2023-04-07T06:47:35;46.43;;;24.87;;
14348;SDS011;7258;50.376;8.742;2023-04-07T06:49:47;55.70;;;25.77;;
14348;SDS011;7258;50.376;8.742;2023-04-07T06:51:51;45.80;;;23.50;;
14348;SDS011;7258;50.376;8.742;2023-04-07T06:53:54;46.63;;;22.97;;
14348;SDS011;7258;50.376;8.742;2023-04-07T06:56:04;48.47;;;22.90;;
14348;SDS011;7258;50.376;8.742;2023-04-07T06:58:08;43.53;;;22.33;;
14348;SDS011;7258;50.376;8.742;2023-04-07T07:00:11;40.33;;;21.67;;
14348;SDS011;7258;50.376;8.742;2023-04-07T07:02:18;43.73;;;22.43;;
14348;SDS011;7258;50.376;8.742;2023-04-07T07:04:24;49.90;;;23.60;;
14348;SDS011;7258;50.376;8.742;2023-04-07T07:06:28;43.83;;;22.83;;
14348;SDS011;7258;50.376;8.742;2023-04-07T07:08:31;40.87;;;21.57;;
14348;SDS011;7258;50.376;8.742;2023-04-07T07:10:34;44.57;;;21.97;;
14348;SDS011;7258;50.376;8.742;2023-04-07T07:12:37;41.23;;;21.77;;
14348;SDS011;7258;50.376;8.742;2023-04-07T07:14:41;37.87;;;21.20;;
14348;SDS011;7258;50.376;8.742;2023-04-07T07:16:46;40.03;;;21.63;;
14348;SDS011;7258;50.376;8.742;2023-04-07T07:18:58;47.47;;;22.33;;
14348;SDS011;7258;50.376;8.742;2023-04-07T07:21:03;39.70;;;21.47;;
14348;SDS011;7258;50.376;8.742;2023-04-07T07:23:06;40.57;;;20.23;;
14348;SDS011;7258;50.376;8.742;2023-04-07T07:25:12;35.00;;;19.87;;
14348;SDS011;7258;50.376;8.742;2023-04-07T07:27:15;35.57;;;20.20;;
14348;SDS011;7258;50.376;8.742;2023-04-07T07:29:18;35.23;;;19.23;;
14348;SDS011;7258;50.376;8.742;2023-04-07T07:31:22;34.30;;;19.53;;
14348;SDS011;7258;50.376;8.742;2023-04-07T07:33:28;36.53;;;20.03;;
14348;SDS011;7258;50.376;8.742;2023-04-07T07:35:33;34.57;;;20.27;;
14348;SDS011;7258;50.376;8.742;2023-04-07T07:37:39;35.70;;;20.37;;
14348;SDS011;7258;50.376;8.742;2023-04-07T07:39:42;32.23;;;19.20;;
14348;SDS011;7258;50.376;8.742;2023-04-07T07:41:51;35.73;;;19.30;;
14348;SDS011;7258;50.376;8.742;2023-04-07T07:43:55;29.87;;;18.00;;
14348;SDS011;7258;50.376;8.742;2023-04-07T07:46:00;31.77;;;18.67;;
14348;SDS011;7258;50.376;8.742;2023-04-07T07:48:06;31.50;;;18.50;;
14348;SDS011;7258;50.376;8.742;2023-04-07T07:50:09;28.87;;;17.67;;
14348;SDS011;7258;50.376;8.742;2023-04-07T07:52:17;29.70;;;17.40;;
14348;SDS011;7258;50.376;8.742;2023-04-07T07:54:21;28.70;;;16.90;;
14348;SDS011;7258;50.376;8.742;2023-04-07T07:56:24;26.17;;;17.00;;
14348;SDS011;7258;50.376;8.742;2023-04-07T07:58:27;26.53;;;16.97;;
14348;SDS011;7258;50.376;8.742;2023-04-07T08:00:30;30.60;;;17.00;;
14348;SDS011;7258;50.376;8.742;2023-04-07T08:02:34;27.67;;;16.20;;
14348;SDS011;7258;50.376;8.742;2023-04-07T08:04:37;28.87;;;16.17;;
14348;SDS011;7258;50.376;8.742;2023-04-07T08:06:41;28.43;;;16.37;;
14348;SDS011;7258;50.376;8.742;2023-04-07T08:08:49;23.73;;;16.13;;
14348;SDS011;7258;50.376;8.742;2023-04-07T08:10:52;21.80;;;15.73;;
14348;SDS011;7258;50.376;8.742;2023-04-07T08:12:55;22.97;;;15.40;;
14348;SDS011;7258;50.376;8.742;2023-04-07T08:15:01;23.60;;;15.93;;
14348;SDS011;7258;50.376;8.742;2023-04-07T08:17:05;24.67;;;15.83;;
14348;SDS011;7258;50.376;8.742;2023-04-07T08:19:09;24.43;;;15.80;;
14348;SDS011;7258;50.376;8.742;2023-04-07T08:21:12;22.37;;;15.47;;
14348;SDS011;7258;50.376;8.742;2023-04-07T08:23:15;23.00;;;15.53;;
14348;SDS011;7258;50.376;8.742;2023-04-07T08:25:20;21.90;;;15.40;;
14348;SDS011;7258;50.376;8.742;2023-04-07T08:27:23;20.23;;;14.37;;
14348;SDS011;7258;50.376;8.742;2023-04-07T08:29:29;20.33;;;14.87;;
14348;SDS011;7258;50.376;8.742;2023-04-07T08:31:39;17.87;;;13.63;;
14348;SDS011;7258;50.376;8.742;2023-04-07T08:33:52;18.57;;;13.87;;
14348;SDS011;7258;50.376;8.742;2023-04-07T08:36:10;20.80;;;14.33;;
14348;SDS011;7258;50.376;8.742;2023-04-07T08:38:17;18.83;;;13.87;;
14348;SDS011;7258;50.376;8.742;2023-04-07T08:40:24;18.60;;;13.73;;
14348;SDS011;7258;50.376;8.742;2023-04-07T08:42:29;19.50;;;13.90;;
14348;SDS011;7258;50.376;8.742;2023-04-07T08:44:34;19.03;;;14.23;;
14348;SDS011;7258;50.376;8.742;2023-04-07T08:46:39;17.83;;;13.37;;
14348;SDS011;7258;50.376;8.742;2023-04-07T08:48:43;19.37;;;13.53;;
14348;SDS011;7258;50.376;8.742;2023-04-07T08:50:48;17.30;;;14.33;;
14348;SDS011;7258;50.376;8.742;2023-04-07T08:52:54;18.07;;;13.50;;
14348;SDS011;7258;50.376;8.742;2023-04-07T08:55:02;19.80;;;14.17;;
14348;SDS011;7258;50.376;8.742;2023-04-07T08:57:11;20.53;;;13.47;;
14348;SDS011;7258;50.376;8.742;2023-04-07T08:59:15;17.63;;;13.30;;
14348;SDS011;7258;50.376;8.742;2023-04-07T09:01:18;19.50;;;13.43;;
14348;SDS011;7258;50.376;8.742;2023-04-07T09:03:22;19.83;;;13.53;;
14348;SDS011;7258;50.376;8.742;2023-04-07T09:05:28;20.43;;;13.53;;
14348;SDS011;7258;50.376;8.742;2023-04-07T09:07:34;21.20;;;15.17;;
14348;SDS011;7258;50.376;8.742;2023-04-07T09:09:38;16.97;;;13.47;;
14348;SDS011;7258;50.376;8.742;2023-04-07T09:11:41;17.37;;;14.47;;
14348;SDS011;7258;50.376;8.742;2023-04-07T09:13:45;20.50;;;14.13;;
14348;SDS011;7258;50.376;8.742;2023-04-07T09:15:51;18.97;;;14.10;;
14348;SDS011;7258;50.376;8.742;2023-04-07T09:17:57;20.03;;;14.47;;
14348;SDS011;7258;50.376;8.742;2023-04-07T09:20:01;19.97;;;14.40;;
14348;SDS011;7258;50.376;8.742;2023-04-07T09:22:05;17.70;;;13.63;;
14348;SDS011;7258;50.376;8.742;2023-04-07T09:24:19;18.60;;;14.40;;
14348;SDS011;7258;50.376;8.742;2023-04-07T09:26:25;16.73;;;14.17;;
14348;SDS011;7258;50.376;8.742;2023-04-07T09:28:37;18.27;;;13.80;;
14348;SDS011;7258;50.376;8.742;2023-04-07T09:30:51;16.87;;;13.53;;
14348;SDS011;7258;50.376;8.742;2023-04-07T09:32:55;18.57;;;13.90;;
14348;SDS011;7258;50.376;8.742;2023-04-07T09:34:58;19.60;;;13.47;;
14348;SDS011;7258;50.376;8.742;2023-04-07T09:37:01;17.07;;;13.27;;
14348;SDS011;7258;50.376;8.742;2023-04-07T09:39:06;19.97;;;14.70;;
14348;SDS011;7258;50.376;8.742;2023-04-07T09:41:10;18.40;;;13.43;;
14348;SDS011;7258;50.376;8.742;2023-04-07T09:43:18;15.77;;;13.00;;
14348;SDS011;7258;50.376;8.742;2023-04-07T09:45:24;16.03;;;13.30;;
14348;SDS011;7258;50.376;8.742;2023-04-07T09:47:39;15.47;;;13.13;;
14348;SDS011;7258;50.376;8.742;2023-04-07T09:49:48;16.27;;;12.40;;
14348;SDS011;7258;50.376;8.742;2023-04-07T09:51:55;15.17;;;12.00;;
14348;SDS011;7258;50.376;8.742;2023-04-07T09:54:00;15.30;;;12.00;;
14348;SDS011;7258;50.376;8.742;2023-04-07T09:56:03;16.57;;;12.77;;
14348;SDS011;7258;50.376;8.742;2023-04-07T09:58:06;14.27;;;12.40;;
14348;SDS011;7258;50.376;8.742;2023-04-07T10:00:11;16.20;;;12.40;;
14348;SDS011;7258;50.376;8.742;2023-04-07T10:02:14;18.53;;;13.97;;
14348;SDS011;7258;50.376;8.742;2023-04-07T10:04:20;15.97;;;12.60;;
14348;SDS011;7258;50.376;8.742;2023-04-07T10:06:23;16.67;;;13.77;;
14348;SDS011;7258;50.376;8.742;2023-04-07T10:08:27;14.70;;;12.40;;
14348;SDS011;7258;50.376;8.742;2023-04-07T10:10:33;16.50;;;13.27;;
14348;SDS011;7258;50.376;8.742;2023-04-07T10:12:37;17.30;;;14.07;;
14348;SDS011;7258;50.376;8.742;2023-04-07T10:14:42;15.67;;;13.00;;
14348;SDS011;7258;50.376;8.742;2023-04-07T10:16:47;18.60;;;13.20;;
14348;SDS011;7258;50.376;8.742;2023-04-07T10:18:52;18.77;;;14.03;;
14348;SDS011;7258;50.376;8.742;2023-04-07T10:20:56;19.40;;;13.90;;
14348;SDS011;7258;50.376;8.742;2023-04-07T10:23:08;17.40;;;13.43;;
14348;SDS011;7258;50.376;8.742;2023-04-07T10:25:22;19.70;;;13.70;;
14348;SDS011;7258;50.376;8.742;2023-04-07T10:28:11;18.40;;;13.73;;
14348;SDS011;7258;50.376;8.742;2023-04-07T10:30:58;15.20;;;12.70;;
14348;SDS011;7258;50.376;8.742;2023-04-07T10:33:09;15.73;;;12.63;;
14348;SDS011;7258;50.376;8.742;2023-04-07T10:35:12;15.87;;;13.63;;
14348;SDS011;7258;50.376;8.742;2023-04-07T10:37:17;14.53;;;13.03;;
14348;SDS011;7258;50.376;8.742;2023-04-07T10:39:22;13.50;;;12.10;;
14348;SDS011;7258;50.376;8.742;2023-04-07T10:41:31;13.90;;;12.43;;
14348;SDS011;7258;50.376;8.742;2023-04-07T10:43:36;13.00;;;11.30;;
14348;SDS011;7258;50.376;8.742;2023-04-07T10:45:53;13.97;;;12.50;;
14348;SDS011;7258;50.376;8.742;2023-04-07T10:48:08;15.67;;;12.87;;
14348;SDS011;7258;50.376;8.742;2023-04-07T10:50:21;14.13;;;12.63;;
14348;SDS011;7258;50.376;8.742;2023-04-07T10:52:27;14.63;;;13.10;;
14348;SDS011;7258;50.376;8.742;2023-04-07T10:54:30;15.50;;;13.53;;
14348;SDS011;7258;50.376;8.742;2023-04-07T10:59:13;14.10;;;12.30;;
14348;SDS011;7258;50.376;8.742;2023-04-07T11:01:17;15.93;;;13.20;;
14348;SDS011;7258;50.376;8.742;2023-04-07T11:03:21;13.90;;;12.43;;
14348;SDS011;7258;50.376;8.742;2023-04-07T11:05:25;15.27;;;12.87;;
14348;SDS011;7258;50.376;8.742;2023-04-07T11:07:49;13.23;;;11.60;;
14348;SDS011;7258;50.376;8.742;2023-04-07T11:10:07;13.27;;;11.80;;
14348;SDS011;7258;50.376;8.742;2023-04-07T11:12:20;12.80;;;11.60;;
14348;SDS011;7258;50.376;8.742;2023-04-07T11:14:24;12.67;;;11.37;;
14348;SDS011;7258;50.376;8.742;2023-04-07T11:16:34;12.13;;;10.93;;
14348;SDS011;7258;50.376;8.742;2023-04-07T11:18:46;14.43;;;10.97;;
14348;SDS011;7258;50.376;8.742;2023-04-07T11:20:50;12.40;;;11.20;;
14348;SDS011;7258;50.376;8.742;2023-04-07T11:25:31;11.13;;;10.03;;
14348;SDS011;7258;50.376;8.742;2023-04-07T11:27:36;11.67;;;10.47;;
14348;SDS011;7258;50.376;8.742;2023-04-07T11:29:39;11.13;;;10.03;;
14348;SDS011;7258;50.376;8.742;2023-04-07T11:31:46;12.10;;;10.90;;
14348;SDS011;7258;50.376;8.742;2023-04-07T11:33:50;11.73;;;10.53;;
14348;SDS011;7258;50.376;8.742;2023-04-07T11:35:56;12.10;;;10.93;;
14348;SDS011;7258;50.376;8.742;2023-04-07T11:38:01;12.70;;;11.43;;
14348;SDS011;7258;50.376;8.742;2023-04-07T11:40:07;12.37;;;11.27;;
14348;SDS011;7258;50.376;8.742;2023-04-07T11:42:11;11.23;;;10.13;;
14348;SDS011;7258;50.376;8.742;2023-04-07T11:44:14;12.03;;;10.83;;
14348;SDS011;7258;50.376;8.742;2023-04-07T11:46:17;11.13;;;10.03;;
14348;SDS011;7258;50.376;8.742;2023-04-07T11:48:28;11.27;;;10.00;;
14348;SDS011;7258;50.376;8.742;2023-04-07T11:50:38;11.03;;;9.90;;
14348;SDS011;7258;50.376;8.742;2023-04-07T11:52:42;12.03;;;10.83;;
14348;SDS011;7258;50.376;8.742;2023-04-07T11:54:45;11.73;;;10.70;;
14348;SDS011;7258;50.376;8.742;2023-04-07T11:56:52;11.80;;;10.60;;
14348;SDS011;7258;50.376;8.742;2023-04-07T11:59:21;10.13;;;9.13;;
14348;SDS011;7258;50.376;8.742;2023-04-07T12:02:22;10.57;;;9.57;;
14348;SDS011;7258;50.376;8.742;2023-04-07T12:04:12;10.17;;;9.27;;
14348;SDS011;7258;50.376;8.742;2023-04-07T12:06:25;9.70;;;8.80;;
14348;SDS011;7258;50.376;8.742;2023-04-07T12:08:36;8.53;;;7.67;;
14348;SDS011;7258;50.376;8.742;2023-04-07T12:10:48;9.53;;;8.70;;
14348;SDS011;7258;50.376;8.742;2023-04-07T12:13:22;8.10;;;7.30;;
14348;SDS011;7258;50.376;8.742;2023-04-07T12:15:25;8.33;;;7.53;;
14348;SDS011;7258;50.376;8.742;2023-04-07T12:17:43;7.97;;;7.27;;
14348;SDS011;7258;50.376;8.742;2023-04-07T12:19:59;7.27;;;6.67;;
14348;SDS011;7258;50.376;8.742;2023-04-07T12:22:56;7.47;;;6.87;;
14348;SDS011;7258;50.376;8.742;2023-04-07T12:25:00;7.00;;;6.40;;
14348;SDS011;7258;50.376;8.742;2023-04-07T12:27:12;7.80;;;7.00;;
14348;SDS011;7258;50.376;8.742;2023-04-07T12:36:25;6.33;;;5.73;;
14348;SDS011;7258;50.376;8.742;2023-04-07T12:39:06;6.37;;;5.87;;
14348;SDS011;7258;50.376;8.742;2023-04-07T12:41:56;6.20;;;5.70;;
14348;SDS011;7258;50.376;8.742;2023-04-07T12:47:11;5.40;;;5.00;;